createdAt,value
2019-03-12T00:00:13.679Z,39.85
2019-03-12T00:02:40.447Z,39.71
2019-03-12T00:05:07.813Z,39.79
2019-03-12T00:07:34.708Z,39.78
2019-03-12T00:10:01.728Z,40.33
2019-03-12T00:12:28.471Z,40.11
2019-03-12T00:14:55.255Z,40.54
2019-03-12T00:17:21.986Z,40.47
2019-03-12T00:19:48.725Z,40.68
2019-03-12T00:22:15.584Z,40.50
2019-03-12T00:24:42.341Z,40.50
2019-03-12T00:27:09.084Z,40.95
2019-03-12T00:29:35.885Z,40.56
2019-03-12T00:32:02.600Z,41.38
2019-03-12T00:34:29.316Z,41.14
2019-03-12T00:36:56.086Z,41.34
2019-03-12T00:39:22.840Z,41.42
2019-03-12T00:41:49.721Z,41.27
2019-03-12T00:44:16.472Z,41.28
2019-03-12T00:46:43.222Z,41.35
2019-03-12T00:49:10.118Z,41.23
2019-03-12T00:51:36.841Z,41.04
2019-03-12T00:54:03.621Z,41.07
2019-03-12T00:56:30.403Z,40.75
2019-03-12T00:58:57.105Z,40.82
2019-03-12T01:01:24.067Z,40.59
2019-03-12T01:03:50.857Z,40.14
2019-03-12T01:06:17.862Z,40.75
2019-03-12T01:08:46.637Z,40.97
2019-03-12T01:11:13.368Z,41.00
2019-03-12T01:13:40.075Z,41.08
2019-03-12T01:16:06.915Z,41.41
2019-03-12T01:18:33.621Z,40.99
2019-03-12T01:21:00.357Z,42.21
2019-03-12T01:23:27.230Z,42.48
2019-03-12T01:25:53.952Z,42.27
2019-03-12T01:28:20.671Z,42.34
2019-03-12T01:30:47.532Z,42.26
2019-03-12T01:33:14.233Z,42.44
2019-03-12T01:35:40.987Z,42.20
2019-03-12T01:38:07.866Z,42.83
2019-03-12T01:40:34.563Z,42.86
2019-03-12T01:43:01.338Z,42.75
2019-03-12T01:45:28.114Z,43.20
2019-03-12T01:47:54.845Z,43.00
2019-03-12T01:50:21.639Z,42.74
2019-03-12T01:52:48.376Z,43.14
2019-03-12T01:55:16.595Z,43.62
2019-03-12T01:57:43.362Z,43.53
2019-03-12T02:00:16.200Z,43.58
2019-03-12T02:02:43.030Z,43.84
2019-03-12T02:05:09.789Z,43.98
2019-03-12T02:07:36.654Z,43.84
2019-03-12T02:10:06.599Z,44.00
2019-03-12T02:12:33.290Z,43.78
2019-03-12T02:15:00.017Z,43.97
2019-03-12T02:17:26.908Z,43.57
2019-03-12T02:19:53.637Z,43.67
2019-03-12T02:22:20.351Z,43.72
2019-03-12T02:25:09.691Z,44.17
2019-03-12T02:27:36.405Z,44.50
2019-03-12T02:30:08.323Z,44.54
2019-03-12T02:32:35.186Z,44.65
2019-03-12T02:35:02.145Z,44.97
2019-03-12T02:37:28.865Z,44.87
2019-03-12T02:39:55.655Z,45.25
2019-03-12T02:42:22.367Z,45.16
2019-03-12T02:44:49.260Z,45.33
2019-03-12T02:47:16.010Z,45.22
2019-03-12T02:49:42.712Z,45.02
2019-03-12T02:52:09.501Z,45.61
2019-03-12T02:54:36.231Z,45.94
2019-03-12T02:57:03.063Z,45.68
2019-03-12T02:59:29.765Z,45.57
2019-03-12T03:01:56.508Z,45.68
2019-03-12T03:04:23.289Z,45.85
2019-03-12T03:06:49.999Z,45.93
2019-03-12T03:09:16.799Z,46.27
2019-03-12T03:11:43.695Z,46.60
2019-03-12T03:14:33.056Z,46.70
2019-03-12T03:16:59.820Z,47.32
2019-03-12T03:19:26.576Z,47.30
2019-03-12T03:21:53.320Z,48.01
2019-03-12T03:24:20.095Z,48.27
2019-03-12T03:26:46.824Z,48.77
2019-03-12T03:29:13.691Z,49.39
2019-03-12T03:31:40.422Z,50.23
2019-03-12T03:34:07.256Z,51.04
2019-03-12T03:36:34.113Z,50.92
2019-03-12T03:39:00.919Z,51.36
2019-03-12T03:41:27.798Z,51.57
2019-03-12T03:43:54.665Z,51.35
2019-03-12T03:46:21.393Z,51.56
2019-03-12T03:48:48.163Z,51.46
2019-03-12T03:51:14.898Z,51.92
2019-03-12T03:53:41.618Z,52.28
2019-03-12T03:56:08.488Z,53.08
2019-03-12T03:58:35.206Z,53.24
2019-03-12T04:01:01.941Z,53.24
2019-03-12T04:03:28.746Z,53.20
2019-03-12T04:05:55.461Z,53.64
2019-03-12T04:08:22.293Z,53.92
2019-03-12T04:10:49.036Z,53.94
2019-03-12T04:13:15.794Z,53.93
2019-03-12T04:15:42.606Z,54.42
2019-03-12T04:18:09.323Z,54.66
2019-03-12T04:20:36.031Z,55.14
2019-03-12T04:23:02.933Z,55.61
2019-03-12T04:25:29.622Z,56.27
2019-03-12T04:27:56.390Z,56.67
2019-03-12T04:30:23.171Z,57.00
2019-03-12T04:32:49.910Z,57.11
2019-03-12T04:35:27.652Z,56.81
2019-03-12T04:37:54.366Z,57.33
2019-03-12T04:40:21.116Z,56.83
2019-03-12T04:42:48.005Z,57.61
2019-03-12T04:45:15.746Z,57.84
2019-03-12T04:47:42.550Z,57.90
2019-03-12T04:50:09.451Z,57.99
2019-03-12T04:52:36.190Z,58.57
2019-03-12T04:55:09.376Z,58.56
2019-03-12T04:57:36.127Z,58.88
2019-03-12T05:00:08.180Z,58.70
2019-03-12T05:02:34.995Z,58.98
2019-03-12T05:05:01.842Z,59.08
2019-03-12T05:07:28.574Z,58.95
2019-03-12T05:09:55.331Z,59.20
2019-03-12T05:12:22.097Z,59.02
2019-03-12T05:14:48.993Z,58.51
2019-03-12T05:17:15.709Z,58.34
2019-03-12T05:19:42.423Z,58.31
2019-03-12T05:22:09.217Z,57.88
2019-03-12T05:24:35.955Z,58.05
2019-03-12T05:27:02.663Z,57.53
2019-03-12T05:29:29.543Z,57.30
2019-03-12T05:31:56.246Z,56.91
2019-03-12T05:34:23.311Z,56.48
2019-03-12T05:36:50.289Z,56.49
2019-03-12T05:39:17.013Z,56.70
2019-03-12T05:41:43.889Z,56.59
2019-03-12T05:44:10.624Z,56.79
2019-03-12T05:46:37.316Z,56.37
2019-03-12T05:49:04.199Z,56.34
2019-03-12T05:51:30.915Z,55.76
2019-03-12T05:53:57.619Z,55.72
2019-03-12T05:56:24.488Z,55.41
2019-03-12T05:58:51.216Z,55.31
2019-03-12T06:01:17.962Z,54.97
2019-03-12T06:03:44.849Z,54.66
2019-03-12T06:06:11.584Z,55.01
2019-03-12T06:08:38.313Z,54.85
2019-03-12T06:11:05.205Z,55.01
2019-03-12T06:13:31.987Z,55.15
2019-03-12T06:15:58.909Z,55.15
2019-03-12T06:18:25.667Z,55.28
2019-03-12T06:20:52.383Z,55.36
2019-03-12T06:23:19.275Z,55.64
2019-03-12T06:25:46.008Z,55.40
2019-03-12T06:28:12.726Z,55.39
2019-03-12T06:30:39.604Z,55.09
2019-03-12T06:33:06.328Z,54.53
2019-03-12T06:35:33.039Z,54.22
2019-03-12T06:37:59.892Z,54.47
2019-03-12T06:40:26.672Z,53.91
2019-03-12T06:42:53.389Z,53.75
2019-03-12T06:45:20.151Z,54.17
2019-03-12T06:47:46.880Z,54.06
2019-03-12T06:50:13.760Z,53.83
2019-03-12T06:52:40.474Z,53.40
2019-03-12T06:55:07.216Z,53.03
2019-03-12T06:57:37.997Z,53.02
2019-03-12T07:00:09.813Z,52.79
2019-03-12T07:02:36.528Z,52.39
2019-03-12T07:05:04.801Z,51.88
2019-03-12T07:07:33.735Z,51.91
2019-03-12T07:10:00.442Z,51.66
2019-03-12T07:12:30.917Z,51.39
2019-03-12T07:14:57.652Z,51.09
2019-03-12T07:17:24.386Z,50.46
2019-03-12T07:19:51.175Z,50.00
2019-03-12T07:22:17.908Z,49.29
2019-03-12T07:24:44.782Z,49.45
2019-03-12T07:27:11.503Z,48.47
2019-03-12T07:29:38.250Z,48.40
2019-03-12T07:32:05.008Z,47.25
2019-03-12T07:34:36.549Z,47.30
2019-03-12T07:37:00.423Z,47.31
2019-03-12T07:39:27.167Z,46.23
2019-03-12T07:41:53.933Z,45.84
2019-03-12T07:44:20.684Z,44.80
2019-03-12T07:46:47.375Z,44.27
2019-03-12T07:49:14.163Z,44.52
2019-03-12T07:51:40.891Z,44.10
2019-03-12T07:54:07.622Z,44.39
2019-03-12T07:56:34.522Z,44.08
2019-03-12T07:59:01.226Z,43.29
2019-03-12T08:01:27.966Z,43.72
2019-03-12T08:03:54.836Z,43.44
2019-03-12T08:06:21.572Z,43.32
2019-03-12T08:08:48.284Z,42.92
2019-03-12T08:11:15.074Z,42.87
2019-03-12T08:13:41.851Z,42.43
2019-03-12T08:16:08.575Z,42.58
2019-03-12T08:18:36.548Z,41.94
2019-03-12T08:21:03.275Z,40.95
2019-03-12T08:23:30.025Z,40.85
2019-03-12T08:25:56.781Z,40.84
2019-03-12T08:28:23.516Z,40.31
2019-03-12T08:30:50.292Z,39.47
2019-03-12T08:33:17.068Z,39.81
2019-03-12T08:35:43.913Z,38.79
2019-03-12T08:38:10.658Z,38.40
2019-03-12T08:40:37.380Z,38.61
2019-03-12T08:43:04.142Z,38.15
2019-03-12T08:45:30.872Z,38.46
2019-03-12T08:47:57.621Z,37.94
2019-03-12T08:50:24.370Z,37.90
2019-03-12T08:52:51.227Z,37.30
2019-03-12T08:55:17.947Z,37.67
2019-03-12T08:57:44.703Z,37.63
2019-03-12T09:00:11.622Z,37.71
2019-03-12T09:02:38.473Z,37.92
2019-03-12T09:05:05.611Z,37.85
2019-03-12T09:07:32.355Z,36.81
2019-03-12T09:09:59.081Z,36.37
2019-03-12T09:12:25.857Z,35.88
2019-03-12T09:14:52.627Z,35.08
2019-03-12T09:17:19.386Z,35.41
2019-03-12T09:19:46.115Z,35.33
2019-03-12T09:22:12.959Z,34.32
2019-03-12T09:24:39.671Z,35.92
2019-03-12T09:27:06.418Z,34.57
2019-03-12T09:29:33.186Z,34.90
2019-03-12T09:31:59.938Z,35.30
2019-03-12T09:34:26.781Z,35.29
2019-03-12T09:36:53.535Z,34.58
2019-03-12T09:39:20.254Z,33.61
2019-03-12T09:41:49.859Z,33.81
2019-03-12T09:44:25.287Z,34.44
2019-03-12T09:46:52.058Z,34.58
2019-03-12T09:49:18.786Z,34.93
2019-03-12T09:51:45.575Z,34.96
2019-03-12T09:54:12.281Z,35.20
2019-03-12T09:56:39.542Z,34.14
2019-03-12T09:59:06.286Z,33.24
2019-03-12T10:01:33.020Z,31.79
2019-03-12T10:03:59.805Z,33.33
2019-03-12T10:06:26.528Z,33.20
2019-03-12T10:08:53.290Z,33.61
2019-03-12T10:11:20.112Z,33.46
2019-03-12T10:13:46.822Z,33.76
2019-03-12T10:16:13.619Z,33.97
2019-03-12T10:18:40.463Z,32.63
2019-03-12T10:21:07.218Z,33.37
2019-03-12T10:23:33.950Z,32.88
2019-03-12T10:26:00.791Z,32.43
2019-03-12T10:28:27.452Z,31.66
2019-03-12T10:30:54.264Z,31.23
2019-03-12T10:33:21.005Z,31.24
2019-03-12T10:35:47.802Z,32.09
2019-03-12T10:39:10.628Z,31.85
2019-03-12T10:41:37.522Z,30.63
2019-03-12T10:44:04.244Z,29.53
2019-03-12T10:46:31.001Z,30.51
2019-03-12T10:48:57.888Z,31.45
2019-03-12T10:51:24.615Z,31.18
2019-03-12T10:53:51.340Z,31.71
2019-03-12T10:56:18.120Z,30.96
2019-03-12T10:58:44.838Z,30.37
2019-03-12T11:01:11.810Z,29.58
2019-03-12T11:03:38.539Z,30.37
2019-03-12T11:06:05.269Z,30.08
2019-03-12T11:08:32.155Z,29.45
2019-03-12T11:10:58.872Z,27.52
2019-03-12T11:13:25.589Z,25.09
2019-03-12T11:15:52.428Z,24.41
2019-03-12T11:18:19.154Z,22.61
2019-03-12T11:20:45.936Z,21.78
2019-03-12T11:23:12.639Z,22.34
2019-03-12T11:25:39.392Z,22.16
2019-03-12T11:28:06.228Z,21.48
2019-03-12T11:30:33.078Z,20.65
2019-03-12T11:32:59.926Z,20.27
2019-03-12T11:35:26.804Z,19.53
2019-03-12T11:37:53.510Z,19.32
2019-03-12T11:40:23.044Z,17.90
2019-03-12T11:42:49.912Z,17.97
2019-03-12T11:45:19.528Z,19.12
2019-03-12T11:47:45.567Z,18.89
2019-03-12T11:50:16.855Z,18.06
2019-03-12T11:52:52.448Z,18.95
2019-03-12T11:55:14.421Z,18.00
2019-03-12T11:57:41.235Z,18.29
2019-03-12T12:00:20.645Z,18.68
2019-03-12T12:02:59.318Z,18.47
2019-03-12T12:05:15.995Z,18.38
2019-03-12T12:07:42.733Z,18.03
2019-03-12T12:10:16.633Z,18.52
2019-03-12T12:12:43.458Z,18.10
2019-03-12T12:15:11.989Z,18.10
2019-03-12T12:17:38.933Z,17.91
2019-03-12T12:20:10.267Z,17.58
2019-03-12T12:22:36.975Z,18.63
2019-03-12T12:25:09.224Z,18.52
2019-03-12T12:27:35.971Z,18.37
2019-03-12T12:30:10.252Z,18.04
2019-03-12T12:32:37.130Z,18.52
2019-03-12T12:35:08.358Z,18.58
2019-03-12T12:37:35.108Z,18.54
2019-03-12T12:40:02.091Z,17.99
2019-03-12T12:42:28.836Z,18.48
2019-03-12T12:44:55.615Z,18.01
2019-03-12T12:47:22.358Z,18.58
2019-03-12T12:49:49.098Z,17.62
2019-03-12T12:52:15.858Z,18.45
2019-03-12T12:54:42.675Z,18.75
2019-03-12T12:57:09.398Z,18.57
2019-03-12T12:59:36.122Z,17.31
2019-03-12T13:02:03.232Z,17.78
2019-03-12T13:04:29.950Z,18.40
2019-03-12T13:06:56.661Z,17.70
2019-03-12T13:09:23.444Z,18.44
2019-03-12T13:11:50.190Z,17.98
2019-03-12T13:14:16.950Z,17.38
2019-03-12T13:16:43.907Z,17.05
2019-03-12T13:19:10.612Z,17.08
2019-03-12T13:21:37.332Z,17.09
2019-03-12T13:24:04.119Z,16.13
2019-03-12T13:26:30.863Z,16.83
2019-03-12T13:28:57.589Z,16.66
2019-03-12T13:31:24.457Z,17.10
2019-03-12T13:33:51.181Z,16.16
2019-03-12T13:36:17.895Z,15.37
2019-03-12T13:38:46.382Z,16.29
2019-03-12T13:41:13.237Z,16.22
2019-03-12T13:43:40.116Z,16.68
2019-03-12T13:46:06.807Z,16.31
2019-03-12T13:48:33.555Z,16.84
2019-03-12T13:51:00.452Z,16.73
2019-03-12T13:53:27.175Z,15.83
2019-03-12T13:55:54.017Z,15.73
2019-03-12T13:58:20.855Z,16.66
2019-03-12T14:00:47.690Z,15.80
2019-03-12T14:03:14.390Z,17.23
2019-03-12T14:05:41.170Z,15.68
2019-03-12T14:08:07.921Z,17.03
2019-03-12T14:10:34.772Z,16.17
2019-03-12T14:13:01.480Z,17.36
2019-03-12T14:15:36.415Z,17.99
2019-03-12T14:18:03.975Z,17.64
2019-03-12T14:20:53.254Z,18.03
2019-03-12T14:23:36.329Z,19.80
2019-03-12T14:26:03.390Z,18.89
2019-03-12T14:28:30.297Z,18.18
2019-03-12T14:30:57.268Z,18.24
2019-03-12T14:33:24.032Z,18.80
2019-03-12T14:35:52.293Z,18.52
2019-03-12T14:38:19.359Z,18.70
2019-03-12T14:40:46.191Z,18.80
2019-03-12T14:43:13.095Z,18.95
2019-03-12T14:45:51.115Z,18.17
2019-03-12T14:48:51.890Z,18.94
2019-03-12T14:51:32.455Z,19.93
2019-03-12T14:54:12.524Z,19.66
2019-03-12T14:56:39.463Z,19.60
2019-03-12T14:59:06.236Z,19.27
2019-03-12T15:01:33.079Z,19.59
2019-03-12T15:03:59.883Z,18.79
2019-03-12T15:06:26.628Z,18.93
2019-03-12T15:08:53.722Z,19.03
2019-03-12T15:11:20.436Z,19.77
2019-03-12T15:13:47.260Z,18.33
2019-03-12T15:16:14.143Z,19.60
2019-03-12T15:18:40.882Z,18.93
2019-03-12T15:21:07.660Z,18.30
2019-03-12T15:23:34.452Z,20.36
2019-03-12T15:26:01.149Z,20.40
2019-03-12T15:28:27.864Z,19.51
2019-03-12T15:30:54.630Z,19.26
2019-03-12T15:33:21.348Z,20.53
2019-03-12T15:35:48.188Z,22.11
2019-03-12T15:38:14.917Z,22.25
2019-03-12T15:40:41.645Z,23.16
2019-03-12T15:43:08.505Z,24.79
2019-03-12T15:45:35.213Z,24.70
2019-03-12T15:48:01.940Z,24.70
2019-03-12T15:50:28.845Z,25.80
2019-03-12T15:52:55.578Z,26.12
2019-03-12T15:55:22.331Z,26.72
2019-03-12T15:57:49.188Z,27.44
2019-03-12T16:00:16.776Z,28.16
2019-03-12T16:02:43.432Z,28.97
2019-03-12T16:05:10.373Z,29.34
2019-03-12T16:07:37.029Z,28.48
2019-03-12T16:10:10.625Z,28.91
2019-03-12T16:12:37.503Z,28.96
2019-03-12T16:15:08.541Z,29.04
2019-03-12T16:17:35.294Z,29.23
2019-03-12T16:20:04.818Z,29.15
2019-03-12T16:22:32.254Z,29.40
2019-03-12T16:24:58.932Z,29.97
2019-03-12T16:27:25.880Z,31.22
2019-03-12T16:29:52.740Z,31.78
2019-03-12T16:32:19.564Z,31.91
2019-03-12T16:34:46.348Z,32.19
2019-03-12T16:37:18.581Z,32.49
2019-03-12T16:39:45.473Z,32.82
2019-03-12T16:42:12.365Z,33.27
2019-03-12T16:44:39.029Z,32.92
2019-03-12T16:47:06.022Z,32.87
2019-03-12T16:49:32.724Z,32.71
2019-03-12T16:51:59.475Z,32.62
2019-03-12T16:54:26.596Z,32.77
2019-03-12T16:56:53.432Z,33.37
2019-03-12T16:59:20.160Z,34.52
2019-03-12T17:01:47.040Z,34.29
2019-03-12T17:04:13.798Z,34.24
2019-03-12T17:06:40.501Z,34.32
2019-03-12T17:09:09.006Z,34.94
2019-03-12T17:11:35.722Z,35.13
2019-03-12T17:14:02.561Z,34.28
2019-03-12T17:16:29.356Z,34.83
2019-03-12T17:18:56.397Z,35.79
2019-03-12T17:21:23.210Z,35.66
2019-03-12T17:23:50.397Z,35.73
2019-03-12T17:26:17.447Z,36.29
2019-03-12T17:28:44.583Z,36.26
2019-03-12T17:31:12.180Z,36.45
2019-03-12T17:33:39.397Z,36.64
2019-03-12T17:36:06.530Z,37.34
2019-03-12T17:38:45.963Z,36.91
2019-03-12T17:41:02.880Z,36.92
2019-03-12T17:43:30.265Z,36.48
2019-03-12T17:45:57.789Z,36.80
2019-03-12T17:48:24.937Z,37.06
2019-03-12T17:50:52.259Z,37.07
2019-03-12T17:53:19.602Z,36.61
2019-03-12T17:55:46.727Z,36.59
2019-03-12T17:58:13.876Z,37.26
2019-03-12T18:00:41.134Z,37.79
2019-03-12T18:03:08.265Z,37.07
2019-03-12T18:05:35.561Z,37.12
2019-03-12T18:08:02.846Z,37.02
2019-03-12T18:10:30.162Z,37.11
2019-03-12T18:12:57.312Z,38.39
2019-03-12T18:15:24.582Z,38.66
2019-03-12T18:17:51.796Z,39.11
2019-03-12T18:20:21.863Z,37.89
2019-03-12T18:22:52.056Z,37.89
2019-03-12T18:25:33.754Z,38.23
2019-03-12T18:28:01.031Z,39.20
2019-03-12T18:30:28.349Z,39.48
2019-03-12T18:32:55.479Z,39.20
2019-03-12T18:35:22.969Z,39.88
2019-03-12T18:37:50.163Z,40.31
2019-03-12T18:40:25.173Z,40.10
2019-03-12T18:42:52.457Z,40.17
2019-03-12T18:45:33.675Z,40.80
2019-03-12T18:48:00.851Z,40.58
2019-03-12T18:50:28.057Z,40.20
2019-03-12T18:52:55.452Z,40.29
2019-03-12T18:55:38.364Z,41.05
2019-03-12T18:58:06.467Z,40.76
2019-03-12T19:00:34.496Z,40.55
2019-03-12T19:03:01.610Z,41.01
2019-03-12T19:05:28.939Z,41.13
2019-03-12T19:07:56.182Z,41.37
2019-03-12T19:10:23.402Z,41.00
2019-03-12T19:12:50.652Z,40.38
2019-03-12T19:15:17.790Z,40.89
2019-03-12T19:17:44.829Z,40.94
2019-03-12T19:20:17.481Z,40.99
2019-03-12T19:22:44.579Z,40.65
2019-03-12T19:25:34.578Z,41.31
2019-03-12T19:28:01.730Z,40.90
2019-03-12T19:30:33.674Z,41.06
2019-03-12T19:33:00.918Z,41.35
2019-03-12T19:35:30.012Z,41.49
2019-03-12T19:37:59.110Z,41.68
2019-03-12T19:40:44.567Z,42.08
2019-03-12T19:43:12.045Z,42.26
2019-03-12T19:45:39.359Z,41.94
2019-03-12T19:48:06.764Z,41.45
2019-03-12T19:50:34.785Z,41.33
2019-03-12T19:53:02.350Z,41.33
2019-03-12T19:55:57.927Z,41.31
2019-03-12T19:58:28.164Z,41.91
2019-03-12T20:00:56.574Z,41.71
2019-03-12T20:03:23.965Z,41.99
2019-03-12T20:05:51.313Z,42.54
2019-03-12T20:08:18.656Z,42.71
2019-03-12T20:11:02.991Z,42.10
2019-03-12T20:14:24.417Z,42.60
2019-03-12T20:17:16.231Z,43.37
2019-03-12T20:20:37.538Z,43.42
2019-03-12T20:23:36.999Z,43.88
2019-03-12T20:27:01.008Z,43.58
2019-03-12T20:29:58.817Z,43.55
2019-03-12T20:32:48.900Z,43.58
2019-03-12T20:35:32.698Z,43.29
2019-03-12T20:38:52.908Z,44.01
2019-03-12T20:42:00.347Z,44.23
2019-03-12T20:44:59.593Z,44.06
2019-03-12T20:47:50.116Z,43.83
2019-03-12T20:50:48.050Z,43.77
2019-03-12T20:54:07.423Z,43.93
2019-03-12T20:57:29.924Z,44.02
2019-03-12T21:00:11.098Z,44.66
2019-03-12T21:03:01.641Z,45.16
2019-03-12T21:06:04.125Z,44.56
2019-03-12T21:08:48.193Z,44.25
2019-03-12T21:12:03.153Z,44.24
2019-03-12T21:15:15.214Z,44.32
2019-03-12T21:18:33.471Z,44.02
2019-03-12T21:21:39.399Z,44.64
2019-03-12T21:24:36.103Z,44.68
2019-03-12T21:27:14.190Z,43.29
2019-03-12T21:29:43.014Z,43.61
2019-03-12T21:32:11.781Z,44.16
2019-03-12T21:34:38.851Z,43.72
2019-03-12T21:37:05.867Z,43.68
2019-03-12T21:39:32.839Z,44.21
2019-03-12T21:41:59.658Z,44.26
2019-03-12T21:44:26.553Z,43.80
2019-03-12T21:46:53.449Z,43.68
2019-03-12T21:49:20.307Z,44.34
2019-03-12T21:51:47.500Z,44.20
2019-03-12T21:54:14.283Z,44.62
2019-03-12T21:56:41.145Z,44.98
2019-03-12T21:59:07.981Z,45.14
2019-03-12T22:01:34.961Z,44.68
2019-03-12T22:04:01.728Z,44.42
2019-03-12T22:06:28.623Z,44.56
2019-03-12T22:08:55.578Z,44.86
2019-03-12T22:11:22.336Z,45.13
2019-03-12T22:13:49.080Z,45.47
2019-03-12T22:16:15.825Z,45.32
2019-03-12T22:18:42.571Z,45.01
2019-03-12T22:21:09.463Z,45.02
2019-03-12T22:23:36.183Z,45.16
2019-03-12T22:26:02.903Z,45.26
2019-03-12T22:28:29.711Z,45.04
2019-03-12T22:30:56.551Z,45.22
2019-03-12T22:33:23.415Z,45.02
2019-03-12T22:35:50.286Z,44.95
2019-03-12T22:38:16.986Z,44.81
2019-03-12T22:40:43.734Z,45.04
2019-03-12T22:43:10.461Z,45.31
2019-03-12T22:45:37.487Z,45.24
2019-03-12T22:48:04.165Z,44.79
2019-03-12T22:50:31.062Z,44.50
2019-03-12T22:52:57.803Z,44.87
2019-03-12T22:55:24.539Z,45.40
2019-03-12T22:57:51.604Z,45.36
2019-03-12T23:00:20.116Z,45.13
2019-03-12T23:02:46.958Z,44.88
2019-03-12T23:05:14.377Z,45.09
2019-03-12T23:07:41.118Z,45.43
2019-03-12T23:10:11.176Z,45.81
2019-03-12T23:12:38.231Z,45.67
2019-03-12T23:15:14.036Z,45.14
2019-03-12T23:17:40.778Z,45.39
2019-03-12T23:20:11.908Z,45.88
2019-03-12T23:22:38.790Z,46.33
2019-03-12T23:25:07.620Z,46.29
2019-03-12T23:27:34.344Z,45.88
2019-03-12T23:30:01.175Z,45.34
2019-03-12T23:32:27.935Z,45.74
2019-03-12T23:34:54.689Z,46.00
2019-03-12T23:37:21.520Z,46.34
2019-03-12T23:39:48.230Z,46.41
2019-03-12T23:42:14.937Z,46.14
2019-03-12T23:44:41.713Z,46.13
2019-03-12T23:47:08.414Z,45.94
2019-03-12T23:49:35.284Z,46.02
2019-03-12T23:52:02.065Z,45.70
2019-03-12T23:54:29.131Z,45.01
2019-03-12T23:56:56.045Z,44.86
2019-03-12T23:59:22.774Z,45.29
